sensor_id;sensor_type;location;lat;lon;timestamp;P1;durP1;ratioP1;P2;durP2;ratioP2
20743;SDS011;56303;52.160;-0.428;2023-06-14T00:00:14;6.47;;;3.83;;
20743;SDS011;56303;52.160;-0.428;2023-06-14T00:02:41;7.97;;;3.90;;
20743;SDS011;56303;52.160;-0.428;2023-06-14T00:05:09;5.87;;;4.23;;
20743;SDS011;56303;52.160;-0.428;2023-06-14T00:07:39;7.87;;;3.93;;
20743;SDS011;56303;52.160;-0.428;2023-06-14T00:10:10;5.33;;;4.10;;
20743;SDS011;56303;52.160;-0.428;2023-06-14T00:12:38;6.30;;;3.67;;
20743;SDS011;56303;52.160;-0.428;2023-06-14T00:15:07;7.30;;;4.00;;
20743;SDS011;56303;52.160;-0.428;2023-06-14T00:17:36;8.50;;;4.07;;
20743;SDS011;56303;52.160;-0.428;2023-06-14T00:20:05;7.77;;;3.80;;
20743;SDS011;56303;52.160;-0.428;2023-06-14T00:22:33;6.47;;;3.83;;
20743;SDS011;56303;52.160;-0.428;2023-06-14T00:25:00;7.87;;;3.87;;
20743;SDS011;56303;52.160;-0.428;2023-06-14T00:27:44;6.37;;;3.87;;
20743;SDS011;56303;52.160;-0.428;2023-06-14T00:30:13;7.47;;;3.83;;
20743;SDS011;56303;52.160;-0.428;2023-06-14T00:32:40;8.83;;;4.40;;
20743;SDS011;56303;52.160;-0.428;2023-06-14T00:35:09;9.87;;;4.57;;
20743;SDS011;56303;52.160;-0.428;2023-06-14T00:37:36;7.13;;;4.40;;
20743;SDS011;56303;52.160;-0.428;2023-06-14T00:40:04;7.60;;;4.37;;
20743;SDS011;56303;52.160;-0.428;2023-06-14T00:42:32;10.63;;;4.43;;
20743;SDS011;56303;52.160;-0.428;2023-06-14T00:44:59;8.30;;;4.93;;
20743;SDS011;56303;52.160;-0.428;2023-06-14T00:47:26;7.83;;;5.10;;
20743;SDS011;56303;52.160;-0.428;2023-06-14T00:49:53;12.33;;;5.07;;
20743;SDS011;56303;52.160;-0.428;2023-06-14T00:52:22;9.00;;;5.40;;
20743;SDS011;56303;52.160;-0.428;2023-06-14T00:54:50;8.03;;;5.23;;
20743;SDS011;56303;52.160;-0.428;2023-06-14T00:57:17;10.97;;;4.67;;
20743;SDS011;56303;52.160;-0.428;2023-06-14T00:59:46;9.97;;;5.00;;
20743;SDS011;56303;52.160;-0.428;2023-06-14T01:02:14;8.67;;;4.30;;
20743;SDS011;56303;52.160;-0.428;2023-06-14T01:04:43;9.23;;;4.20;;
20743;SDS011;56303;52.160;-0.428;2023-06-14T01:07:23;8.17;;;4.80;;
20743;SDS011;56303;52.160;-0.428;2023-06-14T01:15:30;8.73;;;5.20;;
20743;SDS011;56303;52.160;-0.428;2023-06-14T01:17:57;9.87;;;5.57;;
20743;SDS011;56303;52.160;-0.428;2023-06-14T01:20:31;12.50;;;5.60;;
20743;SDS011;56303;52.160;-0.428;2023-06-14T01:22:59;8.13;;;4.97;;
20743;SDS011;56303;52.160;-0.428;2023-06-14T01:25:27;11.33;;;5.07;;
20743;SDS011;56303;52.160;-0.428;2023-06-14T01:27:58;10.17;;;5.50;;
20743;SDS011;56303;52.160;-0.428;2023-06-14T01:30:26;12.33;;;6.03;;
20743;SDS011;56303;52.160;-0.428;2023-06-14T01:32:54;7.77;;;5.43;;
20743;SDS011;56303;52.160;-0.428;2023-06-14T01:35:23;10.90;;;6.23;;
20743;SDS011;56303;52.160;-0.428;2023-06-14T01:37:50;9.50;;;6.10;;
20743;SDS011;56303;52.160;-0.428;2023-06-14T01:40:18;8.90;;;5.90;;
20743;SDS011;56303;52.160;-0.428;2023-06-14T01:42:47;15.50;;;6.47;;
20743;SDS011;56303;52.160;-0.428;2023-06-14T01:45:16;14.10;;;6.53;;
20743;SDS011;56303;52.160;-0.428;2023-06-14T01:47:44;10.47;;;6.37;;
20743;SDS011;56303;52.160;-0.428;2023-06-14T01:50:12;15.73;;;7.77;;
20743;SDS011;56303;52.160;-0.428;2023-06-14T01:52:39;10.20;;;6.80;;
20743;SDS011;56303;52.160;-0.428;2023-06-14T01:55:07;9.57;;;6.87;;
20743;SDS011;56303;52.160;-0.428;2023-06-14T01:57:35;9.67;;;6.60;;
20743;SDS011;56303;52.160;-0.428;2023-06-14T02:00:03;10.17;;;6.17;;
20743;SDS011;56303;52.160;-0.428;2023-06-14T02:02:32;10.53;;;7.97;;
20743;SDS011;56303;52.160;-0.428;2023-06-14T02:04:59;13.20;;;5.97;;
20743;SDS011;56303;52.160;-0.428;2023-06-14T02:07:26;14.47;;;7.80;;
20743;SDS011;56303;52.160;-0.428;2023-06-14T02:09:53;11.57;;;7.37;;
20743;SDS011;56303;52.160;-0.428;2023-06-14T02:12:20;11.00;;;6.50;;
20743;SDS011;56303;52.160;-0.428;2023-06-14T02:14:47;11.17;;;6.63;;
20743;SDS011;56303;52.160;-0.428;2023-06-14T02:17:14;14.80;;;6.80;;
20743;SDS011;56303;52.160;-0.428;2023-06-14T02:19:42;12.10;;;7.40;;
20743;SDS011;56303;52.160;-0.428;2023-06-14T02:22:09;11.93;;;6.87;;
20743;SDS011;56303;52.160;-0.428;2023-06-14T02:24:36;9.33;;;6.57;;
20743;SDS011;56303;52.160;-0.428;2023-06-14T02:27:03;11.07;;;6.73;;
20743;SDS011;56303;52.160;-0.428;2023-06-14T02:29:31;10.30;;;7.37;;
20743;SDS011;56303;52.160;-0.428;2023-06-14T02:31:58;13.03;;;7.03;;
20743;SDS011;56303;52.160;-0.428;2023-06-14T02:34:25;9.73;;;6.27;;
20743;SDS011;56303;52.160;-0.428;2023-06-14T02:36:52;9.70;;;6.40;;
20743;SDS011;56303;52.160;-0.428;2023-06-14T02:39:19;19.50;;;7.27;;
20743;SDS011;56303;52.160;-0.428;2023-06-14T02:41:47;14.30;;;7.27;;
20743;SDS011;56303;52.160;-0.428;2023-06-14T02:44:14;11.97;;;6.60;;
20743;SDS011;56303;52.160;-0.428;2023-06-14T02:46:41;12.17;;;6.97;;
20743;SDS011;56303;52.160;-0.428;2023-06-14T02:49:10;11.83;;;6.70;;
20743;SDS011;56303;52.160;-0.428;2023-06-14T02:51:37;12.90;;;7.50;;
20743;SDS011;56303;52.160;-0.428;2023-06-14T02:54:04;10.30;;;6.40;;
20743;SDS011;56303;52.160;-0.428;2023-06-14T02:56:31;11.10;;;6.83;;
20743;SDS011;56303;52.160;-0.428;2023-06-14T02:58:58;11.97;;;7.70;;
20743;SDS011;56303;52.160;-0.428;2023-06-14T03:01:25;13.67;;;6.67;;
20743;SDS011;56303;52.160;-0.428;2023-06-14T03:04:01;10.00;;;6.80;;
20743;SDS011;56303;52.160;-0.428;2023-06-14T03:06:29;10.87;;;6.67;;
20743;SDS011;56303;52.160;-0.428;2023-06-14T03:08:57;11.37;;;6.77;;
20743;SDS011;56303;52.160;-0.428;2023-06-14T03:11:26;10.07;;;7.53;;
20743;SDS011;56303;52.160;-0.428;2023-06-14T03:13:54;12.90;;;7.37;;
20743;SDS011;56303;52.160;-0.428;2023-06-14T03:16:22;11.00;;;7.67;;
20743;SDS011;56303;52.160;-0.428;2023-06-14T03:18:51;9.20;;;7.33;;
20743;SDS011;56303;52.160;-0.428;2023-06-14T03:21:18;11.53;;;7.00;;
20743;SDS011;56303;52.160;-0.428;2023-06-14T03:23:47;14.70;;;7.63;;
20743;SDS011;56303;52.160;-0.428;2023-06-14T03:26:14;12.00;;;8.43;;
20743;SDS011;56303;52.160;-0.428;2023-06-14T03:28:44;12.97;;;8.83;;
20743;SDS011;56303;52.160;-0.428;2023-06-14T03:31:12;11.77;;;7.70;;
20743;SDS011;56303;52.160;-0.428;2023-06-14T03:33:39;14.50;;;8.10;;
20743;SDS011;56303;52.160;-0.428;2023-06-14T03:36:06;11.47;;;7.63;;
20743;SDS011;56303;52.160;-0.428;2023-06-14T03:38:33;11.07;;;7.67;;
20743;SDS011;56303;52.160;-0.428;2023-06-14T03:41:01;9.23;;;7.10;;
20743;SDS011;56303;52.160;-0.428;2023-06-14T03:43:27;15.07;;;7.87;;
20743;SDS011;56303;52.160;-0.428;2023-06-14T03:45:56;11.70;;;6.87;;
20743;SDS011;56303;52.160;-0.428;2023-06-14T03:48:23;14.00;;;8.40;;
20743;SDS011;56303;52.160;-0.428;2023-06-14T03:50:50;12.97;;;7.67;;
20743;SDS011;56303;52.160;-0.428;2023-06-14T03:53:17;11.97;;;7.50;;
20743;SDS011;56303;52.160;-0.428;2023-06-14T03:55:46;10.63;;;7.30;;
20743;SDS011;56303;52.160;-0.428;2023-06-14T03:58:17;13.23;;;8.40;;
20743;SDS011;56303;52.160;-0.428;2023-06-14T04:00:45;13.93;;;7.97;;
20743;SDS011;56303;52.160;-0.428;2023-06-14T04:03:12;10.57;;;7.30;;
20743;SDS011;56303;52.160;-0.428;2023-06-14T04:05:42;12.60;;;7.80;;
20743;SDS011;56303;52.160;-0.428;2023-06-14T04:08:09;16.00;;;7.80;;
20743;SDS011;56303;52.160;-0.428;2023-06-14T04:10:36;10.37;;;7.40;;
20743;SDS011;56303;52.160;-0.428;2023-06-14T04:13:03;10.27;;;7.33;;
20743;SDS011;56303;52.160;-0.428;2023-06-14T04:15:30;10.57;;;7.63;;
20743;SDS011;56303;52.160;-0.428;2023-06-14T04:17:57;11.47;;;7.30;;
20743;SDS011;56303;52.160;-0.428;2023-06-14T04:20:24;11.37;;;8.67;;
20743;SDS011;56303;52.160;-0.428;2023-06-14T04:22:51;13.43;;;8.00;;
20743;SDS011;56303;52.160;-0.428;2023-06-14T04:25:19;11.53;;;7.03;;
20743;SDS011;56303;52.160;-0.428;2023-06-14T04:27:49;12.23;;;7.47;;
20743;SDS011;56303;52.160;-0.428;2023-06-14T04:30:16;11.10;;;7.97;;
20743;SDS011;56303;52.160;-0.428;2023-06-14T04:32:43;12.13;;;7.63;;
20743;SDS011;56303;52.160;-0.428;2023-06-14T04:35:12;8.97;;;6.80;;
20743;SDS011;56303;52.160;-0.428;2023-06-14T04:37:39;11.40;;;7.13;;
20743;SDS011;56303;52.160;-0.428;2023-06-14T04:40:08;9.53;;;7.50;;
20743;SDS011;56303;52.160;-0.428;2023-06-14T04:42:38;10.03;;;7.83;;
20743;SDS011;56303;52.160;-0.428;2023-06-14T04:45:06;9.57;;;6.97;;
20743;SDS011;56303;52.160;-0.428;2023-06-14T04:47:34;13.50;;;7.73;;
20743;SDS011;56303;52.160;-0.428;2023-06-14T04:50:02;10.97;;;7.70;;
20743;SDS011;56303;52.160;-0.428;2023-06-14T04:52:29;10.37;;;6.77;;
20743;SDS011;56303;52.160;-0.428;2023-06-14T04:54:58;13.77;;;7.50;;
20743;SDS011;56303;52.160;-0.428;2023-06-14T04:57:25;11.30;;;7.67;;
20743;SDS011;56303;52.160;-0.428;2023-06-14T04:59:52;9.83;;;7.53;;
20743;SDS011;56303;52.160;-0.428;2023-06-14T05:02:24;11.37;;;8.80;;
20743;SDS011;56303;52.160;-0.428;2023-06-14T05:04:51;13.10;;;8.30;;
20743;SDS011;56303;52.160;-0.428;2023-06-14T05:07:19;12.33;;;7.47;;
20743;SDS011;56303;52.160;-0.428;2023-06-14T05:09:46;11.13;;;7.97;;
20743;SDS011;56303;52.160;-0.428;2023-06-14T05:12:13;12.83;;;7.70;;
20743;SDS011;56303;52.160;-0.428;2023-06-14T05:14:40;11.90;;;7.07;;
20743;SDS011;56303;52.160;-0.428;2023-06-14T05:17:07;13.43;;;8.80;;
20743;SDS011;56303;52.160;-0.428;2023-06-14T05:19:34;12.40;;;7.33;;
20743;SDS011;56303;52.160;-0.428;2023-06-14T05:22:02;10.63;;;7.00;;
20743;SDS011;56303;52.160;-0.428;2023-06-14T05:24:29;10.83;;;7.27;;
20743;SDS011;56303;52.160;-0.428;2023-06-14T05:26:57;12.27;;;7.33;;
20743;SDS011;56303;52.160;-0.428;2023-06-14T05:29:24;12.03;;;7.10;;
20743;SDS011;56303;52.160;-0.428;2023-06-14T05:31:55;12.70;;;7.50;;
20743;SDS011;56303;52.160;-0.428;2023-06-14T05:34:23;11.97;;;7.27;;
20743;SDS011;56303;52.160;-0.428;2023-06-14T05:36:49;13.53;;;7.00;;
20743;SDS011;56303;52.160;-0.428;2023-06-14T05:39:16;10.47;;;7.67;;
20743;SDS011;56303;52.160;-0.428;2023-06-14T05:41:43;12.73;;;7.63;;
20743;SDS011;56303;52.160;-0.428;2023-06-14T05:44:10;11.17;;;7.03;;
20743;SDS011;56303;52.160;-0.428;2023-06-14T05:46:37;13.60;;;6.83;;
20743;SDS011;56303;52.160;-0.428;2023-06-14T05:49:06;10.60;;;6.93;;
20743;SDS011;56303;52.160;-0.428;2023-06-14T05:51:33;13.03;;;6.67;;
20743;SDS011;56303;52.160;-0.428;2023-06-14T05:54:00;15.30;;;7.33;;
20743;SDS011;56303;52.160;-0.428;2023-06-14T05:56:27;11.63;;;6.20;;
20743;SDS011;56303;52.160;-0.428;2023-06-14T05:58:54;9.00;;;6.40;;
20743;SDS011;56303;52.160;-0.428;2023-06-14T06:01:21;13.03;;;6.70;;
20743;SDS011;56303;52.160;-0.428;2023-06-14T06:03:48;16.77;;;6.80;;
20743;SDS011;56303;52.160;-0.428;2023-06-14T06:06:15;10.43;;;6.53;;
20743;SDS011;56303;52.160;-0.428;2023-06-14T06:08:42;12.30;;;6.40;;
20743;SDS011;56303;52.160;-0.428;2023-06-14T06:11:09;15.93;;;7.30;;
20743;SDS011;56303;52.160;-0.428;2023-06-14T06:13:36;10.83;;;6.23;;
20743;SDS011;56303;52.160;-0.428;2023-06-14T06:16:05;14.97;;;7.47;;
20743;SDS011;56303;52.160;-0.428;2023-06-14T06:18:32;11.73;;;6.80;;
20743;SDS011;56303;52.160;-0.428;2023-06-14T06:20:59;12.27;;;7.03;;
20743;SDS011;56303;52.160;-0.428;2023-06-14T06:23:26;7.97;;;6.40;;
20743;SDS011;56303;52.160;-0.428;2023-06-14T06:25:53;10.17;;;5.43;;
20743;SDS011;56303;52.160;-0.428;2023-06-14T06:28:20;12.73;;;6.33;;
20743;SDS011;56303;52.160;-0.428;2023-06-14T06:30:46;12.60;;;6.40;;
20743;SDS011;56303;52.160;-0.428;2023-06-14T06:33:13;11.43;;;6.53;;
20743;SDS011;56303;52.160;-0.428;2023-06-14T06:35:40;14.10;;;5.80;;
20743;SDS011;56303;52.160;-0.428;2023-06-14T06:38:07;10.20;;;6.10;;
20743;SDS011;56303;52.160;-0.428;2023-06-14T06:40:36;11.40;;;5.50;;
20743;SDS011;56303;52.160;-0.428;2023-06-14T06:43:03;15.83;;;6.17;;
20743;SDS011;56303;52.160;-0.428;2023-06-14T06:45:30;12.10;;;5.63;;
20743;SDS011;56303;52.160;-0.428;2023-06-14T06:47:57;12.43;;;6.50;;
20743;SDS011;56303;52.160;-0.428;2023-06-14T06:50:24;15.63;;;6.20;;
20743;SDS011;56303;52.160;-0.428;2023-06-14T06:52:51;12.70;;;5.53;;
20743;SDS011;56303;52.160;-0.428;2023-06-14T06:55:19;13.57;;;5.87;;
20743;SDS011;56303;52.160;-0.428;2023-06-14T06:57:46;19.73;;;6.73;;
20743;SDS011;56303;52.160;-0.428;2023-06-14T07:00:14;14.63;;;6.07;;
20743;SDS011;56303;52.160;-0.428;2023-06-14T07:02:42;11.03;;;5.87;;
20743;SDS011;56303;52.160;-0.428;2023-06-14T07:05:09;16.03;;;5.83;;
20743;SDS011;56303;52.160;-0.428;2023-06-14T07:07:36;15.00;;;6.23;;
20743;SDS011;56303;52.160;-0.428;2023-06-14T07:10:03;17.83;;;6.80;;
20743;SDS011;56303;52.160;-0.428;2023-06-14T07:12:31;11.53;;;5.87;;
20743;SDS011;56303;52.160;-0.428;2023-06-14T07:15:00;15.43;;;5.97;;
20743;SDS011;56303;52.160;-0.428;2023-06-14T07:17:27;13.63;;;5.87;;
20743;SDS011;56303;52.160;-0.428;2023-06-14T07:19:55;16.13;;;6.90;;
20743;SDS011;56303;52.160;-0.428;2023-06-14T07:22:22;13.27;;;5.87;;
20743;SDS011;56303;52.160;-0.428;2023-06-14T07:24:48;13.73;;;5.47;;
20743;SDS011;56303;52.160;-0.428;2023-06-14T07:27:16;19.63;;;6.27;;
20743;SDS011;56303;52.160;-0.428;2023-06-14T07:29:42;13.90;;;6.47;;
20743;SDS011;56303;52.160;-0.428;2023-06-14T07:32:09;10.73;;;6.00;;
20743;SDS011;56303;52.160;-0.428;2023-06-14T07:34:36;14.17;;;6.67;;
20743;SDS011;56303;52.160;-0.428;2023-06-14T07:37:03;12.27;;;6.10;;
20743;SDS011;56303;52.160;-0.428;2023-06-14T07:39:30;10.97;;;6.10;;
20743;SDS011;56303;52.160;-0.428;2023-06-14T07:41:57;16.17;;;6.10;;
20743;SDS011;56303;52.160;-0.428;2023-06-14T07:44:24;15.30;;;6.27;;
20743;SDS011;56303;52.160;-0.428;2023-06-14T07:46:51;16.40;;;6.70;;
20743;SDS011;56303;52.160;-0.428;2023-06-14T07:49:18;11.63;;;5.90;;
20743;SDS011;56303;52.160;-0.428;2023-06-14T07:51:45;11.97;;;5.60;;
20743;SDS011;56303;52.160;-0.428;2023-06-14T07:54:13;15.07;;;6.90;;
20743;SDS011;56303;52.160;-0.428;2023-06-14T07:56:40;12.37;;;6.03;;
20743;SDS011;56303;52.160;-0.428;2023-06-14T07:59:10;12.60;;;5.57;;
20743;SDS011;56303;52.160;-0.428;2023-06-14T08:01:36;17.70;;;5.97;;
20743;SDS011;56303;52.160;-0.428;2023-06-14T08:04:03;14.13;;;6.23;;
20743;SDS011;56303;52.160;-0.428;2023-06-14T08:06:31;13.40;;;5.93;;
20743;SDS011;56303;52.160;-0.428;2023-06-14T08:08:59;18.03;;;6.63;;
20743;SDS011;56303;52.160;-0.428;2023-06-14T08:11:27;13.10;;;7.23;;
20743;SDS011;56303;52.160;-0.428;2023-06-14T08:13:53;10.47;;;6.10;;
20743;SDS011;56303;52.160;-0.428;2023-06-14T08:16:20;13.57;;;5.87;;
20743;SDS011;56303;52.160;-0.428;2023-06-14T08:18:48;13.57;;;5.73;;
20743;SDS011;56303;52.160;-0.428;2023-06-14T08:21:15;17.83;;;6.30;;
20743;SDS011;56303;52.160;-0.428;2023-06-14T08:23:42;15.20;;;7.03;;
20743;SDS011;56303;52.160;-0.428;2023-06-14T08:26:12;16.63;;;5.80;;
20743;SDS011;56303;52.160;-0.428;2023-06-14T08:28:39;15.43;;;6.50;;
20743;SDS011;56303;52.160;-0.428;2023-06-14T08:31:06;16.93;;;7.30;;
20743;SDS011;56303;52.160;-0.428;2023-06-14T08:33:32;16.40;;;8.03;;
20743;SDS011;56303;52.160;-0.428;2023-06-14T08:36:01;18.43;;;7.00;;
20743;SDS011;56303;52.160;-0.428;2023-06-14T08:38:27;11.73;;;6.10;;
20743;SDS011;56303;52.160;-0.428;2023-06-14T08:40:56;15.30;;;6.23;;
20743;SDS011;56303;52.160;-0.428;2023-06-14T08:43:24;11.90;;;5.70;;
20743;SDS011;56303;52.160;-0.428;2023-06-14T08:45:57;14.57;;;5.73;;
20743;SDS011;56303;52.160;-0.428;2023-06-14T08:48:26;14.30;;;6.80;;
20743;SDS011;56303;52.160;-0.428;2023-06-14T08:50:55;12.53;;;6.20;;
20743;SDS011;56303;52.160;-0.428;2023-06-14T08:53:29;12.37;;;6.37;;
20743;SDS011;56303;52.160;-0.428;2023-06-14T08:56:03;15.73;;;6.67;;
20743;SDS011;56303;52.160;-0.428;2023-06-14T08:58:31;13.87;;;6.20;;
20743;SDS011;56303;52.160;-0.428;2023-06-14T09:01:03;14.07;;;6.37;;
20743;SDS011;56303;52.160;-0.428;2023-06-14T09:03:31;15.43;;;5.70;;
20743;SDS011;56303;52.160;-0.428;2023-06-14T09:05:59;9.40;;;6.07;;
20743;SDS011;56303;52.160;-0.428;2023-06-14T09:08:27;14.03;;;5.83;;
20743;SDS011;56303;52.160;-0.428;2023-06-14T09:10:57;11.10;;;5.90;;
20743;SDS011;56303;52.160;-0.428;2023-06-14T09:13:26;15.10;;;6.33;;
20743;SDS011;56303;52.160;-0.428;2023-06-14T09:15:57;17.40;;;6.40;;
20743;SDS011;56303;52.160;-0.428;2023-06-14T09:18:33;13.97;;;5.47;;
20743;SDS011;56303;52.160;-0.428;2023-06-14T09:21:11;10.10;;;5.83;;
20743;SDS011;56303;52.160;-0.428;2023-06-14T09:23:42;13.60;;;6.03;;
20743;SDS011;56303;52.160;-0.428;2023-06-14T09:26:14;14.37;;;6.33;;
20743;SDS011;56303;52.160;-0.428;2023-06-14T09:28:49;14.20;;;6.20;;
20743;SDS011;56303;52.160;-0.428;2023-06-14T09:31:19;10.70;;;5.03;;
20743;SDS011;56303;52.160;-0.428;2023-06-14T09:33:49;9.03;;;5.20;;
20743;SDS011;56303;52.160;-0.428;2023-06-14T09:39:50;10.90;;;5.67;;
20743;SDS011;56303;52.160;-0.428;2023-06-14T09:42:17;11.40;;;5.80;;
20743;SDS011;56303;52.160;-0.428;2023-06-14T09:44:49;15.53;;;5.80;;
20743;SDS011;56303;52.160;-0.428;2023-06-14T09:47:18;12.03;;;6.17;;
20743;SDS011;56303;52.160;-0.428;2023-06-14T09:49:45;14.67;;;6.93;;
20743;SDS011;56303;52.160;-0.428;2023-06-14T09:52:19;10.90;;;5.97;;
20743;SDS011;56303;52.160;-0.428;2023-06-14T09:54:47;11.87;;;5.80;;
20743;SDS011;56303;52.160;-0.428;2023-06-14T09:57:21;12.10;;;5.73;;
20743;SDS011;56303;52.160;-0.428;2023-06-14T09:59:52;10.97;;;5.63;;
20743;SDS011;56303;52.160;-0.428;2023-06-14T10:02:25;11.23;;;5.50;;
20743;SDS011;56303;52.160;-0.428;2023-06-14T10:07:32;9.32;;;5.30;;
20743;SDS011;56303;52.160;-0.428;2023-06-14T10:10:06;10.57;;;5.20;;
20743;SDS011;56303;52.160;-0.428;2023-06-14T10:12:35;12.93;;;5.32;;
20743;SDS011;56303;52.160;-0.428;2023-06-14T10:15:02;9.35;;;5.38;;
20743;SDS011;56303;52.160;-0.428;2023-06-14T10:17:44;12.85;;;5.93;;
20743;SDS011;56303;52.160;-0.428;2023-06-14T10:20:28;12.73;;;5.90;;
20743;SDS011;56303;52.160;-0.428;2023-06-14T10:23:04;13.40;;;6.07;;
20743;SDS011;56303;52.160;-0.428;2023-06-14T10:25:37;12.82;;;5.15;;
20743;SDS011;56303;52.160;-0.428;2023-06-14T10:28:19;13.15;;;5.32;;
20743;SDS011;56303;52.160;-0.428;2023-06-14T10:31:04;12.10;;;5.35;;
20743;SDS011;56303;52.160;-0.428;2023-06-14T10:33:48;11.82;;;5.35;;
20743;SDS011;56303;52.160;-0.428;2023-06-14T10:38:57;13.50;;;5.40;;
20743;SDS011;56303;52.160;-0.428;2023-06-14T10:41:28;8.57;;;4.55;;
20743;SDS011;56303;52.160;-0.428;2023-06-14T10:46:48;10.23;;;5.43;;
20743;SDS011;56303;52.160;-0.428;2023-06-14T10:49:16;12.23;;;5.68;;
20743;SDS011;56303;52.160;-0.428;2023-06-14T10:51:49;12.45;;;5.22;;
20743;SDS011;56303;52.160;-0.428;2023-06-14T10:54:21;11.25;;;5.88;;
20743;SDS011;56303;52.160;-0.428;2023-06-14T10:56:50;11.10;;;5.68;;
20743;SDS011;56303;52.160;-0.428;2023-06-14T10:59:18;12.48;;;5.45;;
20743;SDS011;56303;52.160;-0.428;2023-06-14T11:04:52;12.00;;;5.15;;
20743;SDS011;56303;52.160;-0.428;2023-06-14T11:10:32;10.23;;;5.85;;
20743;SDS011;56303;52.160;-0.428;2023-06-14T11:13:06;8.27;;;5.65;;
20743;SDS011;56303;52.160;-0.428;2023-06-14T11:15:35;13.00;;;5.70;;
20743;SDS011;56303;52.160;-0.428;2023-06-14T11:18:06;8.93;;;5.20;;
20743;SDS011;56303;52.160;-0.428;2023-06-14T11:20:36;11.13;;;5.57;;
20743;SDS011;56303;52.160;-0.428;2023-06-14T11:23:03;9.38;;;5.60;;
20743;SDS011;56303;52.160;-0.428;2023-06-14T11:25:30;11.68;;;5.05;;
20743;SDS011;56303;52.160;-0.428;2023-06-14T11:27:57;10.15;;;4.80;;
20743;SDS011;56303;52.160;-0.428;2023-06-14T11:30:25;8.45;;;5.10;;
20743;SDS011;56303;52.160;-0.428;2023-06-14T11:32:52;9.20;;;4.82;;
20743;SDS011;56303;52.160;-0.428;2023-06-14T11:35:25;11.98;;;4.85;;
20743;SDS011;56303;52.160;-0.428;2023-06-14T11:37:55;7.50;;;5.05;;
20743;SDS011;56303;52.160;-0.428;2023-06-14T11:40:23;12.25;;;5.60;;
20743;SDS011;56303;52.160;-0.428;2023-06-14T11:42:57;10.25;;;5.88;;
20743;SDS011;56303;52.160;-0.428;2023-06-14T11:45:26;10.57;;;5.68;;
20743;SDS011;56303;52.160;-0.428;2023-06-14T11:47:57;10.55;;;5.20;;
20743;SDS011;56303;52.160;-0.428;2023-06-14T11:50:25;12.00;;;5.80;;
20743;SDS011;56303;52.160;-0.428;2023-06-14T11:52:58;13.70;;;5.40;;
20743;SDS011;56303;52.160;-0.428;2023-06-14T11:55:30;9.45;;;5.20;;
20743;SDS011;56303;52.160;-0.428;2023-06-14T11:57:57;14.07;;;6.05;;
20743;SDS011;56303;52.160;-0.428;2023-06-14T12:00:27;7.93;;;5.05;;
20743;SDS011;56303;52.160;-0.428;2023-06-14T12:02:56;9.93;;;5.65;;
20743;SDS011;56303;52.160;-0.428;2023-06-14T12:05:24;9.77;;;5.35;;
20743;SDS011;56303;52.160;-0.428;2023-06-14T12:08:02;12.55;;;5.90;;
20743;SDS011;56303;52.160;-0.428;2023-06-14T12:10:39;10.68;;;5.63;;
20743;SDS011;56303;52.160;-0.428;2023-06-14T12:13:10;12.95;;;6.38;;
20743;SDS011;56303;52.160;-0.428;2023-06-14T12:15:37;11.23;;;5.40;;
20743;SDS011;56303;52.160;-0.428;2023-06-14T12:18:07;9.75;;;6.22;;
20743;SDS011;56303;52.160;-0.428;2023-06-14T12:20:37;13.35;;;5.63;;
20743;SDS011;56303;52.160;-0.428;2023-06-14T12:23:05;7.43;;;5.35;;
20743;SDS011;56303;52.160;-0.428;2023-06-14T12:25:33;9.27;;;5.25;;
20743;SDS011;56303;52.160;-0.428;2023-06-14T12:28:06;10.73;;;5.47;;
20743;SDS011;56303;52.160;-0.428;2023-06-14T12:30:35;12.55;;;5.30;;
20743;SDS011;56303;52.160;-0.428;2023-06-14T12:33:03;11.27;;;6.65;;
20743;SDS011;56303;52.160;-0.428;2023-06-14T12:35:30;11.68;;;5.30;;
20743;SDS011;56303;52.160;-0.428;2023-06-14T12:37:57;9.38;;;5.35;;
20743;SDS011;56303;52.160;-0.428;2023-06-14T12:40:24;12.85;;;4.97;;
20743;SDS011;56303;52.160;-0.428;2023-06-14T12:42:53;13.75;;;5.53;;
20743;SDS011;56303;52.160;-0.428;2023-06-14T12:45:20;7.80;;;5.82;;
20743;SDS011;56303;52.160;-0.428;2023-06-14T12:47:47;10.05;;;5.35;;
20743;SDS011;56303;52.160;-0.428;2023-06-14T12:50:14;7.53;;;5.32;;
20743;SDS011;56303;52.160;-0.428;2023-06-14T12:52:41;8.07;;;5.63;;
20743;SDS011;56303;52.160;-0.428;2023-06-14T12:55:09;8.85;;;5.57;;
20743;SDS011;56303;52.160;-0.428;2023-06-14T12:57:36;11.18;;;6.22;;
20743;SDS011;56303;52.160;-0.428;2023-06-14T13:00:04;11.20;;;5.55;;
20743;SDS011;56303;52.160;-0.428;2023-06-14T13:02:34;11.18;;;5.53;;
20743;SDS011;56303;52.160;-0.428;2023-06-14T13:05:01;8.50;;;5.40;;
20743;SDS011;56303;52.160;-0.428;2023-06-14T13:07:30;9.27;;;5.70;;
20743;SDS011;56303;52.160;-0.428;2023-06-14T13:09:57;11.25;;;5.63;;
20743;SDS011;56303;52.160;-0.428;2023-06-14T13:12:24;9.55;;;5.55;;
20743;SDS011;56303;52.160;-0.428;2023-06-14T13:14:51;9.15;;;5.13;;
20743;SDS011;56303;52.160;-0.428;2023-06-14T13:17:18;8.20;;;5.30;;
20743;SDS011;56303;52.160;-0.428;2023-06-14T13:19:45;10.82;;;5.93;;
20743;SDS011;56303;52.160;-0.428;2023-06-14T13:22:12;9.05;;;4.78;;
20743;SDS011;56303;52.160;-0.428;2023-06-14T13:24:39;7.80;;;5.30;;
20743;SDS011;56303;52.160;-0.428;2023-06-14T13:27:07;10.05;;;5.45;;
20743;SDS011;56303;52.160;-0.428;2023-06-14T13:29:34;8.48;;;4.60;;
20743;SDS011;56303;52.160;-0.428;2023-06-14T13:32:03;7.20;;;4.72;;
20743;SDS011;56303;52.160;-0.428;2023-06-14T13:34:30;6.55;;;5.25;;
20743;SDS011;56303;52.160;-0.428;2023-06-14T13:36:57;9.38;;;4.93;;
20743;SDS011;56303;52.160;-0.428;2023-06-14T13:39:25;8.48;;;5.20;;
20743;SDS011;56303;52.160;-0.428;2023-06-14T13:41:52;8.90;;;5.03;;
20743;SDS011;56303;52.160;-0.428;2023-06-14T13:44:20;9.15;;;5.25;;
20743;SDS011;56303;52.160;-0.428;2023-06-14T13:46:48;8.48;;;4.93;;
20743;SDS011;56303;52.160;-0.428;2023-06-14T13:49:15;10.45;;;5.15;;
20743;SDS011;56303;52.160;-0.428;2023-06-14T13:51:42;7.03;;;4.93;;
20743;SDS011;56303;52.160;-0.428;2023-06-14T13:54:11;7.50;;;4.63;;
20743;SDS011;56303;52.160;-0.428;2023-06-14T13:56:39;10.82;;;5.38;;
20743;SDS011;56303;52.160;-0.428;2023-06-14T13:59:06;9.73;;;5.20;;
20743;SDS011;56303;52.160;-0.428;2023-06-14T14:01:33;7.65;;;5.20;;
20743;SDS011;56303;52.160;-0.428;2023-06-14T14:04:00;7.40;;;5.70;;
20743;SDS011;56303;52.160;-0.428;2023-06-14T14:06:28;7.95;;;5.13;;
20743;SDS011;56303;52.160;-0.428;2023-06-14T14:08:55;6.95;;;5.28;;
20743;SDS011;56303;52.160;-0.428;2023-06-14T14:11:23;6.40;;;5.13;;
20743;SDS011;56303;52.160;-0.428;2023-06-14T14:13:49;9.30;;;5.10;;
20743;SDS011;56303;52.160;-0.428;2023-06-14T14:16:16;8.90;;;4.80;;
20743;SDS011;56303;52.160;-0.428;2023-06-14T14:18:44;7.25;;;5.10;;
20743;SDS011;56303;52.160;-0.428;2023-06-14T14:21:11;7.57;;;5.18;;
20743;SDS011;56303;52.160;-0.428;2023-06-14T14:23:39;6.35;;;5.03;;
20743;SDS011;56303;52.160;-0.428;2023-06-14T14:26:07;6.68;;;5.32;;
20743;SDS011;56303;52.160;-0.428;2023-06-14T14:28:34;7.78;;;4.80;;
20743;SDS011;56303;52.160;-0.428;2023-06-14T14:31:01;8.95;;;5.25;;
20743;SDS011;56303;52.160;-0.428;2023-06-14T14:33:28;8.52;;;5.20;;
20743;SDS011;56303;52.160;-0.428;2023-06-14T14:35:55;5.78;;;5.18;;
20743;SDS011;56303;52.160;-0.428;2023-06-14T14:38:22;7.05;;;4.80;;
20743;SDS011;56303;52.160;-0.428;2023-06-14T14:40:49;10.27;;;5.68;;
20743;SDS011;56303;52.160;-0.428;2023-06-14T14:43:16;7.97;;;4.80;;
20743;SDS011;56303;52.160;-0.428;2023-06-14T14:45:42;7.97;;;5.82;;
20743;SDS011;56303;52.160;-0.428;2023-06-14T14:48:10;8.15;;;5.43;;
20743;SDS011;56303;52.160;-0.428;2023-06-14T14:50:37;7.53;;;4.90;;
20743;SDS011;56303;52.160;-0.428;2023-06-14T14:53:04;7.63;;;5.35;;
20743;SDS011;56303;52.160;-0.428;2023-06-14T14:55:32;7.20;;;5.05;;